Time;durP1;ratioP1;P1;durP2;ratioP2;P2;SDS_P1;SDS_P2;PMS_P1;PMS_P2;Temp;Humidity;BMP_temperature;BMP_pressure;BME280_temperature;BME280_humidity;BME280_pressure;Samples;Min_cycle;Max_cycle;Signal;HPM_P1;HPM_P2
2023/05/11 00:00:30;;;;;;;38.28;18.05;;;11.00;99.90;;;;;;5065911;28;20048;-66
2023/05/11 00:02:56;;;;;;;34.33;17.75;;;10.90;99.90;;;;;;5049912;28;20049;-67
2023/05/11 00:05:22;;;;;;;33.45;16.98;;;10.90;99.90;;;;;;5072213;28;20048;-66
2023/05/11 00:07:48;;;;;;;34.00;17.33;;;10.90;99.90;;;;;;5070381;28;20050;-66
2023/05/11 00:10:13;;;;;;;38.92;18.98;;;10.90;99.90;;;;;;5075381;28;20049;-66
2023/05/11 00:12:39;;;;;;;35.00;18.05;;;10.90;99.90;;;;;;5052906;28;20040;-66
2023/05/11 00:15:05;;;;;;;41.28;19.05;;;10.90;99.90;;;;;;5049767;28;20116;-66
2023/05/11 00:17:31;;;;;;;40.83;18.77;;;10.90;99.90;;;;;;5049894;28;20344;-66
2023/05/11 00:19:57;;;;;;;48.05;20.02;;;11.00;99.90;;;;;;5066406;28;20144;-66
2023/05/11 00:22:23;;;;;;;41.58;18.88;;;11.00;99.90;;;;;;5050019;28;20043;-66
2023/05/11 00:24:48;;;;;;;32.65;17.80;;;11.00;99.90;;;;;;5050196;28;20048;-66
2023/05/11 00:27:14;;;;;;;34.35;17.98;;;11.00;99.90;;;;;;5050221;28;20032;-66
2023/05/11 00:29:40;;;;;;;32.88;17.80;;;11.00;99.90;;;;;;5048832;28;20041;-66
2023/05/11 00:32:05;;;;;;;35.47;18.33;;;11.00;99.90;;;;;;5066067;28;20063;-66
2023/05/11 00:34:31;;;;;;;33.40;17.13;;;11.00;99.90;;;;;;5066899;28;20083;-66
2023/05/11 00:36:57;;;;;;;36.35;18.05;;;11.00;99.90;;;;;;5081394;28;20072;-66
2023/05/11 00:39:23;;;;;;;35.80;17.00;;;11.00;99.90;;;;;;5083154;28;20040;-66
2023/05/11 00:41:48;;;;;;;37.22;18.13;;;11.00;99.90;;;;;;5063721;28;20040;-67
2023/05/11 00:44:14;;;;;;;35.03;17.00;;;10.90;99.90;;;;;;5064868;28;20048;-66
2023/05/11 00:46:40;;;;;;;34.38;18.20;;;11.00;99.90;;;;;;5065093;28;20040;-66
2023/05/11 00:49:06;;;;;;;47.08;21.50;;;11.00;99.90;;;;;;5069076;28;20050;-67
2023/05/11 00:51:33;;;;;;;55.95;21.73;;;11.00;99.90;;;;;;5054321;28;20032;-66
2023/05/11 00:53:59;;;;;;;51.05;21.48;;;10.90;99.90;;;;;;5049595;28;20040;-67
2023/05/11 00:56:25;;;;;;;35.15;18.88;;;10.90;99.90;;;;;;5049478;28;20551;-66
2023/05/11 00:58:51;;;;;;;45.97;20.95;;;11.00;99.90;;;;;;5049152;28;20170;-66
2023/05/11 01:01:17;;;;;;;43.90;21.27;;;11.00;99.90;;;;;;5067262;28;20040;-66
2023/05/11 01:03:44;;;;;;;45.95;19.77;;;11.00;99.90;;;;;;5068875;28;20101;-66
2023/05/11 01:06:45;;;;;;;38.03;19.75;;;11.00;99.90;;;;;;5082654;28;20054;-66
2023/05/11 01:09:20;;;;;;;40.78;19.95;;;11.10;99.90;;;;;;5086091;28;20040;-66
2023/05/11 01:11:52;;;;;;;37.17;18.50;;;11.10;99.90;;;;;;5086131;28;20101;-66
2023/05/11 01:14:51;;;;;;;49.97;21.48;;;11.10;99.90;;;;;;5068883;28;20107;-66
2023/05/11 01:17:26;;;;;;;57.03;22.55;;;11.10;99.90;;;;;;5048963;28;20037;-67
2023/05/11 01:20:04;;;;;;;64.53;23.27;;;11.00;99.90;;;;;;5057003;28;20078;-67
2023/05/11 01:22:40;;;;;;;68.63;24.10;;;11.00;99.90;;;;;;5065907;28;20107;-66
2023/05/11 01:25:10;;;;;;;57.78;23.05;;;10.90;99.90;;;;;;5065351;28;20572;-66
2023/05/11 01:27:47;;;;;;;54.83;22.30;;;10.90;99.90;;;;;;5048922;28;20036;-66
2023/05/11 01:30:25;;;;;;;53.75;22.40;;;11.00;99.90;;;;;;5047642;28;20051;-67
2023/05/11 01:32:54;;;;;;;66.65;24.65;;;10.90;99.90;;;;;;5065036;28;20040;-66
2023/05/11 01:35:23;;;;;;;53.90;22.25;;;10.90;99.90;;;;;;5048812;28;20043;-66
2023/05/11 01:37:56;;;;;;;60.17;23.33;;;10.90;99.90;;;;;;5048959;28;20044;-66
2023/05/11 01:40:25;;;;;;;77.25;24.42;;;10.90;99.90;;;;;;5067081;28;20048;-66
2023/05/11 01:43:03;;;;;;;76.22;23.92;;;10.90;99.90;;;;;;5068428;28;20036;-67
2023/05/11 01:45:32;;;;;;;108.00;26.52;;;10.90;99.90;;;;;;5060001;28;20036;-67
2023/05/11 01:48:01;;;;;;;100.07;26.58;;;10.90;99.90;;;;;;5064778;28;20492;-67
2023/05/11 01:50:28;;;;;;;89.43;26.13;;;10.80;99.90;;;;;;5069990;28;20051;-67
2023/05/11 01:52:54;;;;;;;75.10;24.48;;;10.80;99.90;;;;;;5068345;28;20043;-66
2023/05/11 01:55:22;;;;;;;97.57;23.77;;;10.80;99.90;;;;;;5084983;28;20380;-65
2023/05/11 01:57:52;;;;;;;110.55;25.38;;;10.80;99.90;;;;;;5068440;28;20043;-66
2023/05/11 02:00:18;;;;;;;113.13;23.95;;;10.80;99.90;;;;;;5060671;28;20037;-66
2023/05/11 02:02:47;;;;;;;98.28;24.55;;;10.80;99.90;;;;;;5064410;28;20048;-66
2023/05/11 02:05:21;;;;;;;79.78;22.70;;;10.70;99.90;;;;;;5067471;28;20044;-66
2023/05/11 02:07:50;;;;;;;90.95;22.80;;;10.70;99.90;;;;;;5064776;28;20044;-66
2023/05/11 02:10:17;;;;;;;80.30;20.55;;;10.70;99.90;;;;;;5063983;28;20052;-67
2023/05/11 02:12:45;;;;;;;104.05;23.13;;;10.60;99.90;;;;;;5054220;28;20073;-66
2023/05/11 02:15:12;;;;;;;67.63;20.33;;;10.60;99.90;;;;;;5062505;28;20041;-68
2023/05/11 02:17:42;;;;;;;67.20;19.90;;;10.60;99.90;;;;;;5064310;28;20048;-67
2023/05/11 02:20:09;;;;;;;69.53;20.27;;;10.60;99.90;;;;;;5064087;28;20127;-63
2023/05/11 02:22:35;;;;;;;77.25;20.05;;;10.60;99.90;;;;;;5064316;28;20040;-64
2023/05/11 02:25:03;;;;;;;78.00;20.55;;;10.60;99.90;;;;;;5064537;28;20504;-66
2023/05/11 02:27:29;;;;;;;129.55;23.10;;;10.60;99.90;;;;;;5064620;28;20086;-64
2023/05/11 02:29:55;;;;;;;114.05;21.23;;;10.60;99.90;;;;;;5047139;28;20986;-66
2023/05/11 02:32:22;;;;;;;133.25;22.65;;;10.60;99.90;;;;;;5063740;28;20050;-65
2023/05/11 02:34:59;;;;;;;110.65;20.17;;;10.50;99.90;;;;;;5046645;28;20056;-64
2023/05/11 02:37:26;;;;;;;67.35;18.23;;;10.50;99.90;;;;;;5064162;28;20131;-62
2023/05/11 02:39:59;;;;;;;53.38;16.13;;;10.50;99.90;;;;;;5064085;28;20042;-63
2023/05/11 02:42:27;;;;;;;36.67;13.73;;;10.40;99.90;;;;;;5047668;28;20139;-66
2023/05/11 02:45:03;;;;;;;43.88;14.13;;;10.40;99.90;;;;;;5046991;28;20037;-68
2023/05/11 02:47:41;;;;;;;51.28;16.70;;;10.40;99.90;;;;;;5063645;28;20048;-65
2023/05/11 02:50:08;;;;;;;60.20;18.42;;;10.30;99.90;;;;;;5048889;28;20120;-64
2023/05/11 02:52:38;;;;;;;71.15;20.98;;;10.30;99.90;;;;;;5067173;28;20048;-66
2023/05/11 02:55:05;;;;;;;77.05;21.20;;;10.30;99.90;;;;;;5067566;28;20642;-66
2023/05/11 02:57:31;;;;;;;105.97;24.38;;;10.30;99.90;;;;;;5065697;28;20044;-66
2023/05/11 02:59:57;;;;;;;122.85;25.50;;;10.30;99.90;;;;;;5048735;28;20120;-65
2023/05/11 03:02:23;;;;;;;149.48;28.25;;;10.30;99.90;;;;;;5056740;28;20048;-63
2023/05/11 03:04:48;;;;;;;194.50;31.17;;;10.30;99.90;;;;;;5056834;28;20055;-63
2023/05/11 03:07:14;;;;;;;287.85;36.20;;;10.30;99.90;;;;;;5063935;28;20044;-63
2023/05/11 03:09:40;;;;;;;331.25;39.83;;;10.30;99.90;;;;;;5083357;28;20056;-64
2023/05/11 03:12:07;;;;;;;434.83;44.67;;;10.30;99.90;;;;;;5083643;28;20047;-65
2023/05/11 03:14:35;;;;;;;441.42;46.50;;;10.30;99.90;;;;;;5056446;28;20563;-63
2023/05/11 03:17:01;;;;;;;367.73;42.70;;;10.30;99.90;;;;;;5063664;28;20084;-64
2023/05/11 03:19:28;;;;;;;566.38;53.40;;;10.40;99.90;;;;;;5071453;28;20094;-66
2023/05/11 03:21:56;;;;;;;608.78;55.63;;;10.40;99.90;;;;;;5046864;28;20064;-67
2023/05/11 03:24:23;;;;;;;628.25;56.65;;;10.40;99.90;;;;;;5063368;28;20040;-67
2023/05/11 03:26:50;;;;;;;522.55;51.53;;;10.30;99.90;;;;;;5063627;28;20436;-67
2023/05/11 03:29:16;;;;;;;577.35;56.40;;;10.40;99.90;;;;;;5056901;28;20048;-67
2023/05/11 03:31:42;;;;;;;514.90;51.80;;;10.40;99.90;;;;;;5049248;28;20045;-67
2023/05/11 03:34:08;;;;;;;533.05;51.67;;;10.40;99.90;;;;;;5046945;28;20043;-66
2023/05/11 03:36:35;;;;;;;556.63;52.65;;;10.50;99.90;;;;;;5060427;28;20036;-68
2023/05/11 03:39:02;;;;;;;615.30;56.10;;;10.40;99.90;;;;;;5083286;28;20097;-67
2023/05/11 03:41:30;;;;;;;576.15;51.75;;;10.40;99.90;;;;;;5066016;28;20044;-67
2023/05/11 03:43:58;;;;;;;548.22;52.00;;;10.40;99.90;;;;;;5080045;28;20044;-64
2023/05/11 03:46:27;;;;;;;497.98;48.72;;;10.40;99.90;;;;;;5063640;28;20105;-66
2023/05/11 03:48:53;;;;;;;502.50;51.40;;;10.50;99.90;;;;;;5063133;28;20048;-67
2023/05/11 03:51:19;;;;;;;423.70;46.63;;;10.40;99.90;;;;;;5046554;28;20036;-66
2023/05/11 03:53:45;;;;;;;359.83;43.20;;;10.40;99.90;;;;;;5062996;28;20044;-67
2023/05/11 03:56:11;;;;;;;281.23;38.47;;;10.40;99.90;;;;;;5063303;28;20545;-67
2023/05/11 03:58:40;;;;;;;278.77;39.10;;;10.40;99.90;;;;;;5046525;28;20620;-67
2023/05/11 04:01:10;;;;;;;354.52;42.95;;;10.40;99.90;;;;;;5062469;28;20519;-67
2023/05/11 04:03:50;;;;;;;411.48;45.80;;;10.30;99.90;;;;;;5046521;28;20565;-65
2023/05/11 04:06:17;;;;;;;357.25;43.67;;;10.30;99.90;;;;;;5063982;28;20046;-65
2023/05/11 04:08:43;;;;;;;366.13;44.47;;;10.30;99.90;;;;;;5047055;28;20594;-67
2023/05/11 04:11:09;;;;;;;298.40;41.08;;;10.30;99.90;;;;;;5046477;28;20080;-65
2023/05/11 04:13:35;;;;;;;200.30;33.03;;;10.30;99.90;;;;;;5046899;28;20411;-64
2023/05/11 04:16:01;;;;;;;172.90;29.92;;;10.30;99.90;;;;;;5045953;28;20032;-65
2023/05/11 04:18:28;;;;;;;138.65;28.20;;;10.30;99.90;;;;;;5064112;28;20446;-65
2023/05/11 04:20:54;;;;;;;127.90;26.45;;;10.30;99.90;;;;;;5049742;28;20048;-64
2023/05/11 04:23:19;;;;;;;148.02;27.25;;;10.20;99.90;;;;;;5066613;28;20105;-66
2023/05/11 04:25:45;;;;;;;164.57;28.85;;;10.20;99.90;;;;;;5049893;28;20491;-64
2023/05/11 04:28:11;;;;;;;193.55;31.48;;;10.20;99.90;;;;;;5049736;28;20045;-66
2023/05/11 04:30:37;;;;;;;197.18;29.80;;;10.20;99.90;;;;;;5049307;28;20518;-65
2023/05/11 04:33:03;;;;;;;184.15;30.02;;;10.20;99.90;;;;;;5066586;28;20039;-65
2023/05/11 04:35:29;;;;;;;249.82;31.77;;;10.20;99.90;;;;;;5049881;28;20033;-64
2023/05/11 04:37:55;;;;;;;261.98;32.90;;;10.20;99.90;;;;;;5049264;28;20047;-66
2023/05/11 04:40:21;;;;;;;301.92;35.72;;;10.20;99.90;;;;;;5049851;28;20059;-68
2023/05/11 04:42:46;;;;;;;255.35;31.75;;;10.20;99.90;;;;;;5049634;28;20044;-70
2023/05/11 04:45:12;;;;;;;202.68;30.02;;;10.20;99.90;;;;;;5065623;28;20167;-69
2023/05/11 04:47:38;;;;;;;222.07;32.00;;;10.20;99.90;;;;;;5049630;28;20083;-66
2023/05/11 04:50:04;;;;;;;192.93;27.95;;;10.20;99.90;;;;;;5065531;28;20089;-64
2023/05/11 04:52:30;;;;;;;216.13;30.23;;;10.20;99.90;;;;;;5049228;28;20491;-64
2023/05/11 04:54:56;;;;;;;245.07;31.17;;;10.20;99.90;;;;;;5049623;28;20044;-65
2023/05/11 04:57:22;;;;;;;261.95;31.73;;;10.20;99.90;;;;;;5066044;28;20661;-65
2023/05/11 04:59:47;;;;;;;327.15;33.92;;;10.20;99.90;;;;;;5051818;28;20028;-67
2023/05/11 05:02:13;;;;;;;307.08;34.28;;;10.30;99.90;;;;;;5048003;28;20045;-62
2023/05/11 05:04:38;;;;;;;337.30;36.10;;;10.30;99.90;;;;;;5067404;28;20070;-66
2023/05/11 05:07:04;;;;;;;305.67;32.90;;;10.30;99.90;;;;;;5065163;28;20047;-67
2023/05/11 05:09:30;;;;;;;324.02;35.70;;;10.30;99.90;;;;;;5085492;28;20064;-66
2023/05/11 05:11:56;;;;;;;256.98;32.20;;;10.30;99.90;;;;;;5069614;28;20131;-66
2023/05/11 05:14:21;;;;;;;205.95;29.10;;;10.30;99.90;;;;;;5052296;28;20446;-66
2023/05/11 05:16:47;;;;;;;200.80;27.40;;;10.30;99.90;;;;;;5051605;28;20119;-66
2023/05/11 05:19:13;;;;;;;203.48;27.45;;;10.40;99.90;;;;;;5081932;28;20040;-65
2023/05/11 05:21:39;;;;;;;271.55;29.23;;;10.40;99.90;;;;;;5053594;28;20075;-67
2023/05/11 05:24:05;;;;;;;210.27;28.85;;;10.40;99.90;;;;;;5049302;28;20040;-69
2023/05/11 05:26:31;;;;;;;229.30;30.55;;;10.40;99.90;;;;;;5049217;28;20079;-66
2023/05/11 05:28:57;;;;;;;259.40;31.73;;;10.40;99.90;;;;;;5065276;28;20079;-68
2023/05/11 05:31:23;;;;;;;220.80;29.50;;;10.40;99.90;;;;;;5059024;28;20043;-67
2023/05/11 05:33:49;;;;;;;170.40;27.23;;;10.40;99.90;;;;;;5085812;28;20126;-67
2023/05/11 05:36:14;;;;;;;139.07;24.48;;;10.40;99.90;;;;;;5056192;28;20131;-68
2023/05/11 05:38:40;;;;;;;173.90;25.73;;;10.50;99.90;;;;;;5064886;28;20044;-69
2023/05/11 05:41:06;;;;;;;157.48;25.45;;;10.40;99.90;;;;;;5048934;28;20541;-68
2023/05/11 05:43:31;;;;;;;173.88;25.05;;;10.50;99.90;;;;;;5052251;28;20044;-68
2023/05/11 05:45:57;;;;;;;188.07;25.92;;;10.50;99.90;;;;;;5054519;28;20042;-67
2023/05/11 05:48:23;;;;;;;159.18;24.30;;;10.50;99.90;;;;;;5057520;28;20047;-67
2023/05/11 05:50:49;;;;;;;154.95;25.40;;;10.50;99.90;;;;;;5057356;28;20502;-68
2023/05/11 05:53:15;;;;;;;165.40;26.42;;;10.50;99.90;;;;;;5073807;28;20319;-69
2023/05/11 05:55:41;;;;;;;177.93;27.05;;;10.50;99.90;;;;;;5057346;28;20545;-68
2023/05/11 05:58:06;;;;;;;204.65;29.08;;;10.50;99.90;;;;;;5075112;28;20045;-68
2023/05/11 06:00:34;;;;;;;225.55;30.73;;;10.60;99.90;;;;;;5053032;28;20036;-67
2023/05/11 06:03:00;;;;;;;253.18;31.83;;;10.60;99.90;;;;;;5075427;28;20105;-66
2023/05/11 06:05:26;;;;;;;215.98;29.90;;;10.60;99.90;;;;;;5068295;28;20037;-68
2023/05/11 06:07:51;;;;;;;216.77;29.98;;;10.60;99.90;;;;;;5056082;28;20067;-67
2023/05/11 06:10:17;;;;;;;196.95;30.85;;;10.60;99.90;;;;;;5080811;28;20365;-67
2023/05/11 06:12:43;;;;;;;140.88;28.08;;;10.60;99.90;;;;;;5061340;28;20520;-64
2023/05/11 06:15:09;;;;;;;178.63;30.58;;;10.70;99.90;;;;;;5047415;28;21009;-67
2023/05/11 06:17:35;;;;;;;192.38;30.23;;;10.70;99.90;;;;;;5064541;28;20037;-67
2023/05/11 06:20:00;;;;;;;182.20;30.90;;;10.70;99.90;;;;;;5063695;28;20047;-67
2023/05/11 06:22:26;;;;;;;162.65;28.73;;;10.70;99.90;;;;;;5047557;28;20064;-67
2023/05/11 06:24:52;;;;;;;176.48;30.20;;;10.80;99.90;;;;;;5047779;28;20389;-68
2023/05/11 06:27:17;;;;;;;169.05;31.15;;;10.80;99.90;;;;;;5048180;28;20060;-66
2023/05/11 06:29:43;;;;;;;176.40;32.03;;;10.80;99.90;;;;;;5047400;28;20559;-68
2023/05/11 06:32:09;;;;;;;196.80;31.35;;;10.90;99.90;;;;;;5046769;28;20075;-68
2023/05/11 06:34:35;;;;;;;167.60;30.05;;;10.80;99.90;;;;;;5064261;28;20125;-65
2023/05/11 06:37:01;;;;;;;168.57;31.42;;;10.90;99.90;;;;;;5046755;28;20094;-66
2023/05/11 06:39:27;;;;;;;164.43;30.55;;;10.90;99.90;;;;;;5047203;28;20047;-66
2023/05/11 06:41:52;;;;;;;118.18;28.95;;;10.90;99.90;;;;;;5046974;28;20126;-68
2023/05/11 06:44:18;;;;;;;114.05;28.27;;;11.00;99.90;;;;;;5064008;28;20056;-66
2023/05/11 06:46:44;;;;;;;115.82;29.08;;;11.00;99.90;;;;;;5063542;28;20049;-69
2023/05/11 06:49:10;;;;;;;103.80;29.63;;;11.00;99.90;;;;;;5063671;28;20059;-67
2023/05/11 06:51:35;;;;;;;128.70;28.30;;;11.10;99.90;;;;;;5063693;28;20037;-68
2023/05/11 06:54:01;;;;;;;117.25;27.73;;;11.10;99.90;;;;;;5064362;28;20511;-66
2023/05/11 06:56:28;;;;;;;112.55;26.75;;;11.20;99.90;;;;;;5047055;28;20036;-66
2023/05/11 06:58:54;;;;;;;99.00;27.88;;;11.20;99.90;;;;;;5062204;28;20040;-66
2023/05/11 07:01:19;;;;;;;79.07;25.52;;;11.20;99.90;;;;;;5066095;28;20492;-65
2023/05/11 07:03:47;;;;;;;103.03;28.13;;;11.20;99.90;;;;;;5067285;28;20079;-67
2023/05/11 07:06:13;;;;;;;91.25;28.13;;;11.30;99.90;;;;;;5064921;28;20044;-65
2023/05/11 07:08:39;;;;;;;55.28;21.15;;;11.30;99.90;;;;;;5050253;28;20653;-65
2023/05/11 07:11:06;;;;;;;59.78;23.10;;;11.30;99.90;;;;;;5066598;28;20068;-65
2023/05/11 07:13:32;;;;;;;59.47;23.33;;;11.40;99.90;;;;;;5058383;28;20043;-63
2023/05/11 07:15:58;;;;;;;59.25;23.30;;;11.40;99.90;;;;;;5046072;28;20040;-64
2023/05/11 07:18:23;;;;;;;70.15;25.55;;;11.40;99.90;;;;;;5072434;28;20044;-64
2023/05/11 07:20:49;;;;;;;65.13;26.27;;;11.40;99.90;;;;;;5058669;28;20040;-64
2023/05/11 07:23:18;;;;;;;68.97;26.25;;;11.40;99.90;;;;;;5046713;28;20044;-65
2023/05/11 07:25:44;;;;;;;61.45;25.38;;;11.50;99.90;;;;;;5063541;28;20051;-65
2023/05/11 07:28:10;;;;;;;63.53;25.30;;;11.50;99.90;;;;;;5063427;28;20559;-65
2023/05/11 07:30:35;;;;;;;70.38;27.25;;;11.50;99.90;;;;;;5046412;28;20043;-65
2023/05/11 07:33:02;;;;;;;56.25;23.92;;;11.50;99.90;;;;;;5047129;28;20422;-63
2023/05/11 07:35:28;;;;;;;64.63;26.25;;;11.60;99.90;;;;;;5047123;28;20029;-62
2023/05/11 07:37:53;;;;;;;58.35;25.15;;;11.60;99.90;;;;;;5046812;28;20105;-66
2023/05/11 07:40:19;;;;;;;50.95;22.42;;;11.60;99.90;;;;;;5063825;28;20441;-63
2023/05/11 07:42:45;;;;;;;55.08;24.38;;;11.60;99.90;;;;;;5046229;28;20098;-66
2023/05/11 07:45:10;;;;;;;52.25;24.00;;;11.70;99.90;;;;;;5046361;28;20632;-66
2023/05/11 07:47:36;;;;;;;56.15;25.15;;;11.70;99.90;;;;;;5046748;28;20044;-66
2023/05/11 07:50:02;;;;;;;42.75;20.80;;;11.70;99.90;;;;;;5063571;28;20460;-64
2023/05/11 07:52:28;;;;;;;51.95;23.52;;;11.70;99.90;;;;;;5046032;28;20063;-64
2023/05/11 07:54:53;;;;;;;49.40;22.77;;;11.80;99.90;;;;;;5050373;28;20072;-63
2023/05/11 07:57:19;;;;;;;41.00;20.15;;;11.80;99.90;;;;;;5082307;28;20526;-67
2023/05/11 07:59:45;;;;;;;36.38;18.65;;;11.80;99.90;;;;;;5066292;28;20032;-64
2023/05/11 08:02:11;;;;;;;35.70;17.40;;;11.80;99.90;;;;;;5050300;28;20068;-65
2023/05/11 08:04:37;;;;;;;33.13;17.40;;;11.90;99.90;;;;;;5050562;28;20294;-65
2023/05/11 08:07:03;;;;;;;36.22;19.08;;;11.80;99.90;;;;;;5049978;28;20046;-66
2023/05/11 08:09:29;;;;;;;31.52;16.98;;;11.80;99.90;;;;;;5076831;28;20075;-65
2023/05/11 08:11:55;;;;;;;35.00;18.88;;;11.90;99.90;;;;;;5080917;28;20044;-65
2023/05/11 08:14:24;;;;;;;36.42;18.20;;;11.90;99.90;;;;;;5050971;28;20041;-63
2023/05/11 08:16:50;;;;;;;34.60;17.70;;;11.90;99.90;;;;;;5078359;28;20495;-65
2023/05/11 08:19:15;;;;;;;33.60;18.08;;;11.90;99.90;;;;;;5048893;28;20076;-66
2023/05/11 08:21:43;;;;;;;29.77;16.35;;;11.90;99.90;;;;;;5066751;28;20132;-66
2023/05/11 08:24:09;;;;;;;28.83;16.23;;;11.90;99.90;;;;;;5050231;28;20098;-65
2023/05/11 08:26:35;;;;;;;32.38;17.13;;;12.00;99.90;;;;;;5049755;28;20084;-66
2023/05/11 08:29:00;;;;;;;30.75;16.75;;;12.00;99.90;;;;;;5066509;28;20132;-65
2023/05/11 08:31:26;;;;;;;31.77;16.95;;;12.00;99.90;;;;;;5056350;28;20443;-66
2023/05/11 08:33:52;;;;;;;27.42;16.35;;;12.00;99.90;;;;;;5066591;28;20033;-66
2023/05/11 08:36:18;;;;;;;24.58;15.95;;;12.10;99.90;;;;;;5049362;28;20837;-65
2023/05/11 08:38:43;;;;;;;26.52;16.38;;;12.10;99.90;;;;;;5049723;28;20123;-64
2023/05/11 08:41:11;;;;;;;25.80;14.80;;;12.10;99.90;;;;;;5066848;28;20570;-66
2023/05/11 08:43:39;;;;;;;26.30;15.63;;;12.10;99.90;;;;;;5050078;28;20128;-64
2023/05/11 08:46:07;;;;;;;27.83;15.93;;;12.20;99.90;;;;;;5048872;28;20048;-65
2023/05/11 08:48:33;;;;;;;25.73;15.65;;;12.20;99.90;;;;;;5065992;28;20048;-67
2023/05/11 08:51:00;;;;;;;24.13;14.60;;;12.20;99.90;;;;;;5049112;28;20047;-67
2023/05/11 08:53:25;;;;;;;23.17;14.73;;;12.20;99.90;;;;;;5066400;28;20047;-67
2023/05/11 08:55:53;;;;;;;27.20;14.25;;;12.30;99.90;;;;;;5049822;28;20555;-66
2023/05/11 08:58:21;;;;;;;24.73;14.50;;;12.20;99.90;;;;;;5049338;28;20084;-66
2023/05/11 09:00:50;;;;;;;23.65;14.60;;;12.30;99.90;;;;;;5068093;28;20134;-66
2023/05/11 09:03:18;;;;;;;25.08;14.90;;;12.40;99.90;;;;;;5067630;28;20058;-67
2023/05/11 09:05:48;;;;;;;23.73;14.70;;;12.40;99.90;;;;;;5066177;28;20043;-66
2023/05/11 09:08:17;;;;;;;22.77;14.65;;;12.40;99.90;;;;;;5068608;28;20051;-67
2023/05/11 09:10:43;;;;;;;23.42;14.82;;;12.40;99.90;;;;;;5068017;28;20455;-67
2023/05/11 09:13:10;;;;;;;27.60;15.02;;;12.40;99.90;;;;;;5061887;28;20044;-67
2023/05/11 09:15:36;;;;;;;27.65;17.38;;;12.40;99.90;;;;;;5048152;28;20127;-68
2023/05/11 09:18:02;;;;;;;28.35;16.50;;;12.40;99.90;;;;;;5071424;28;20499;-66
2023/05/11 09:20:32;;;;;;;27.08;15.90;;;12.40;99.90;;;;;;5078300;28;20115;-67
2023/05/11 09:22:58;;;;;;;27.30;15.98;;;12.40;99.90;;;;;;5065471;28;20048;-67
2023/05/11 09:25:25;;;;;;;26.70;15.85;;;12.40;99.90;;;;;;5048741;28;20077;-67
2023/05/11 09:27:51;;;;;;;26.08;15.52;;;12.50;99.90;;;;;;5048809;28;20036;-66
2023/05/11 09:30:19;;;;;;;28.75;16.65;;;12.60;99.90;;;;;;5064102;28;20173;-68
2023/05/11 09:32:56;;;;;;;26.42;16.40;;;12.60;99.90;;;;;;5065429;28;20120;-67
2023/05/11 09:35:28;;;;;;;25.50;16.50;;;12.60;99.90;;;;;;5066517;28;20055;-68
2023/05/11 09:38:15;;;;;;;23.73;15.30;;;12.60;99.90;;;;;;5048739;28;20047;-68
2023/05/11 09:40:53;;;;;;;23.40;14.75;;;12.60;99.90;;;;;;5049269;28;20033;-65
2023/05/11 09:43:26;;;;;;;22.55;14.48;;;12.60;99.90;;;;;;5048589;28;20075;-67
2023/05/11 09:45:54;;;;;;;23.33;14.48;;;12.60;99.90;;;;;;5048018;28;20674;-67
2023/05/11 09:48:20;;;;;;;22.65;14.27;;;12.70;99.90;;;;;;5048492;28;20040;-66
2023/05/11 09:50:47;;;;;;;23.70;14.63;;;12.70;99.90;;;;;;5048788;28;20556;-66
2023/05/11 09:53:13;;;;;;;28.75;15.82;;;12.70;99.90;;;;;;5064490;28;20040;-66
2023/05/11 09:55:54;;;;;;;21.27;13.80;;;12.70;99.90;;;;;;5048170;28;20109;-67
2023/05/11 09:58:20;;;;;;;24.27;14.38;;;12.80;99.90;;;;;;5048376;28;20817;-66
2023/05/11 10:00:52;;;;;;;25.08;15.15;;;12.90;99.90;;;;;;5064246;28;20514;-67
2023/05/11 10:03:19;;;;;;;23.17;13.30;;;13.00;99.90;;;;;;5064963;28;20044;-67
2023/05/11 10:05:58;;;;;;;21.27;13.55;;;13.10;99.90;;;;;;5048343;28;20405;-67
2023/05/11 10:08:29;;;;;;;23.13;14.45;;;13.10;99.90;;;;;;5080676;28;20045;-67
2023/05/11 10:10:56;;;;;;;21.80;13.10;;;13.20;99.90;;;;;;5084635;28;20626;-66
2023/05/11 10:13:23;;;;;;;20.42;12.95;;;13.20;99.90;;;;;;5067368;28;20033;-66
2023/05/11 10:15:53;;;;;;;21.73;13.35;;;13.20;99.90;;;;;;5063853;28;20040;-66
2023/05/11 10:18:20;;;;;;;20.20;13.20;;;13.30;99.90;;;;;;5047413;28;20045;-66
2023/05/11 10:20:46;;;;;;;20.33;12.48;;;13.30;99.90;;;;;;5048484;28;20051;-67
2023/05/11 10:23:13;;;;;;;20.52;13.10;;;13.30;99.90;;;;;;5064137;28;20170;-67
2023/05/11 10:25:40;;;;;;;20.02;12.00;;;13.40;99.90;;;;;;5064235;28;20044;-67
2023/05/11 10:28:06;;;;;;;19.80;13.02;;;13.40;99.90;;;;;;5047314;28;20423;-67
2023/05/11 10:30:33;;;;;;;18.67;12.30;;;13.50;99.90;;;;;;5063556;28;20040;-67
2023/05/11 10:33:00;;;;;;;17.20;11.48;;;13.50;99.90;;;;;;5064152;28;20095;-66
2023/05/11 10:35:27;;;;;;;17.67;11.60;;;13.60;99.90;;;;;;5047788;28;20091;-68
2023/05/11 10:37:53;;;;;;;18.20;12.00;;;13.60;99.90;;;;;;5063315;28;20048;-67
2023/05/11 10:40:19;;;;;;;18.45;12.05;;;13.70;99.90;;;;;;5064064;28;20041;-66
2023/05/11 10:43:09;;;;;;;16.48;10.95;;;13.90;99.90;;;;;;5057471;28;20048;-67
2023/05/11 10:45:50;;;;;;;17.10;11.45;;;14.10;99.90;;;;;;5078401;28;20044;-65
2023/05/11 10:48:24;;;;;;;15.63;10.65;;;14.40;99.90;;;;;;5063772;28;20395;-66
2023/05/11 10:51:00;;;;;;;14.80;10.57;;;14.50;99.90;;;;;;5063968;28;20403;-68
2023/05/11 10:53:35;;;;;;;16.15;10.30;;;14.60;99.90;;;;;;5063488;28;20071;-68
2023/05/11 10:56:19;;;;;;;15.98;10.23;;;14.80;99.90;;;;;;5047122;28;20048;-66
2023/05/11 10:58:57;;;;;;;17.10;11.20;;;14.90;99.90;;;;;;5047228;28;20063;-67
2023/05/11 11:01:36;;;;;;;15.18;10.50;;;14.90;99.90;;;;;;5050648;28;20087;-69
2023/05/11 11:04:04;;;;;;;15.35;10.65;;;15.00;99.90;;;;;;5067652;28;20135;-67
2023/05/11 11:06:36;;;;;;;15.07;9.77;;;15.00;99.90;;;;;;5065416;28;20508;-67
2023/05/11 11:09:07;;;;;;;15.45;9.77;;;15.00;99.90;;;;;;5066673;28;20051;-66
2023/05/11 11:11:41;;;;;;;15.63;9.85;;;15.00;99.90;;;;;;5083684;28;20100;-67
2023/05/11 11:14:08;;;;;;;12.15;8.25;;;15.00;99.90;;;;;;5070974;28;20043;-67
2023/05/11 11:16:35;;;;;;;13.57;8.40;;;14.90;99.90;;;;;;5045942;28;20040;-65
2023/05/11 11:19:29;;;;;;;12.10;7.63;;;14.90;99.90;;;;;;5046385;28;20097;-65
2023/05/11 11:21:56;;;;;;;12.95;8.25;;;14.90;99.90;;;;;;5059578;28;20045;-67
2023/05/11 11:24:46;;;;;;;14.18;8.38;;;14.80;99.90;;;;;;5063123;28;20051;-63
2023/05/11 11:27:12;;;;;;;12.40;8.40;;;14.90;99.90;;;;;;5063587;28;20655;-63
2023/05/11 11:29:39;;;;;;;13.40;8.57;;;14.80;99.90;;;;;;5069240;28;20822;-64
2023/05/11 11:32:23;;;;;;;12.98;8.07;;;14.80;99.90;;;;;;5072332;28;20047;-65
2023/05/11 11:34:49;;;;;;;11.88;7.72;;;14.80;99.90;;;;;;5090620;28;20039;-65
2023/05/11 11:37:17;;;;;;;11.68;7.45;;;14.80;99.90;;;;;;5054417;28;20045;-65
2023/05/11 11:39:43;;;;;;;11.35;6.55;;;14.80;99.90;;;;;;5053088;28;20123;-65
2023/05/11 11:42:14;;;;;;;9.68;6.40;;;14.90;99.90;;;;;;5053608;28;20428;-62
2023/05/11 11:44:41;;;;;;;10.70;6.57;;;14.90;99.90;;;;;;5069627;28;20047;-62
2023/05/11 11:47:16;;;;;;;9.73;5.40;;;14.90;99.90;;;;;;5070103;28;20501;-68
2023/05/11 11:49:47;;;;;;;8.52;5.03;;;14.90;99.90;;;;;;5070646;28;20047;-64
2023/05/11 11:52:30;;;;;;;10.77;4.53;;;14.90;99.90;;;;;;5071537;28;20105;-66
2023/05/11 11:55:02;;;;;;;8.45;4.35;;;15.00;99.90;;;;;;5057133;28;20028;-64
2023/05/11 11:57:34;;;;;;;7.97;4.20;;;15.10;99.90;;;;;;5090073;28;20380;-65
2023/05/11 12:00:09;;;;;;;7.93;3.78;;;15.10;99.90;;;;;;5072823;28;20040;-66
2023/05/11 12:02:42;;;;;;;6.97;3.83;;;15.10;99.90;;;;;;5053710;28;20469;-66
2023/05/11 12:05:13;;;;;;;5.97;2.78;;;15.20;99.90;;;;;;5053963;28;20050;-67
2023/05/11 12:07:47;;;;;;;6.47;3.20;;;15.20;99.90;;;;;;5069192;28;20051;-64
2023/05/11 12:10:13;;;;;;;;;;;15.20;99.90;;;;;;5083443;28;20670;-62
2023/05/11 12:12:39;;;;;;;6.93;4.13;;;15.20;99.90;;;;;;5071541;28;20005;-63
2023/05/11 12:15:06;;;;;;;8.55;3.92;;;15.20;99.90;;;;;;5089055;28;20693;-63
2023/05/11 12:17:36;;;;;;;8.23;4.40;;;15.30;99.90;;;;;;5069406;28;20046;-61
2023/05/11 12:20:16;;;;;;;6.28;3.28;;;15.30;99.90;;;;;;5071011;28;20044;-65
2023/05/11 12:22:43;;;;;;;7.00;3.95;;;15.30;99.90;;;;;;5053169;28;20041;-64
2023/05/11 12:25:11;;;;;;;7.70;3.78;;;15.30;99.90;;;;;;5069628;28;20639;-62
2023/05/11 12:27:48;;;;;;;10.52;4.00;;;15.30;99.90;;;;;;5069530;28;20068;-66
2023/05/11 12:30:25;;;;;;;9.55;4.15;;;15.30;99.90;;;;;;5052035;28;20048;-64